createdAt,value
2018-12-01T00:01:51.620Z,35.90
2018-12-01T00:04:19.346Z,34.33
2018-12-01T00:06:46.659Z,34.33
2018-12-01T00:09:14.031Z,33.50
2018-12-01T00:11:41.344Z,35.00
2018-12-01T00:14:08.782Z,33.02
2018-12-01T00:16:36.179Z,35.03
2018-12-01T00:19:03.692Z,37.70
2018-12-01T00:21:31.002Z,36.95
2018-12-01T00:23:58.307Z,38.30
2018-12-01T00:26:25.875Z,37.40
2018-12-01T00:28:53.178Z,36.28
2018-12-01T00:31:20.499Z,35.98
2018-12-01T00:33:47.936Z,35.15
2018-12-01T00:36:15.271Z,36.15
2018-12-01T00:38:42.583Z,36.73
2018-12-01T00:41:09.870Z,38.80
2018-12-01T00:43:37.171Z,37.45
2018-12-01T00:46:04.895Z,33.35
2018-12-01T00:48:32.207Z,36.42
2018-12-01T00:50:59.482Z,36.77
2018-12-01T00:53:26.806Z,35.25
2018-12-01T00:55:54.095Z,36.35
2018-12-01T00:58:21.441Z,35.65
2018-12-01T01:00:48.774Z,35.65
2018-12-01T01:03:16.066Z,34.88
2018-12-01T01:05:43.362Z,33.85
2018-12-01T01:08:10.751Z,33.92
2018-12-01T01:10:38.079Z,34.70
2018-12-01T01:13:05.390Z,34.45
2018-12-01T01:15:32.695Z,35.17
2018-12-01T01:17:59.978Z,32.70
2018-12-01T01:20:27.303Z,33.15
2018-12-01T01:22:54.586Z,34.35
2018-12-01T01:25:21.918Z,33.25
2018-12-01T01:27:49.218Z,34.35
2018-12-01T01:30:23.868Z,34.53
2018-12-01T01:33:02.211Z,34.20
2018-12-01T01:35:29.551Z,33.10
2018-12-01T01:37:56.839Z,32.23
2018-12-01T01:40:24.162Z,33.05
2018-12-01T01:42:51.502Z,34.80
2018-12-01T01:45:19.216Z,34.40
2018-12-01T01:47:46.574Z,34.50
2018-12-01T01:50:15.234Z,36.38
2018-12-01T01:52:42.511Z,37.28
2018-12-01T01:55:10.604Z,34.85
2018-12-01T01:57:37.899Z,35.05
2018-12-01T02:00:21.016Z,32.58
2018-12-01T02:02:49.102Z,33.65
2018-12-01T02:05:17.483Z,33.80
2018-12-01T02:07:44.758Z,34.20
2018-12-01T02:10:13.081Z,32.13
2018-12-01T02:12:40.353Z,32.95
2018-12-01T02:15:08.824Z,33.92
2018-12-01T02:17:36.090Z,30.08
2018-12-01T02:20:05.354Z,34.13
2018-12-01T02:22:32.622Z,32.63
2018-12-01T02:24:59.971Z,30.88
2018-12-01T02:27:27.263Z,33.58
2018-12-01T02:29:54.515Z,33.70
2018-12-01T02:32:21.778Z,31.70
2018-12-01T02:34:49.031Z,31.95
2018-12-01T02:37:16.326Z,31.70
2018-12-01T02:39:43.611Z,32.63
2018-12-01T02:42:10.959Z,32.75
2018-12-01T02:45:06.434Z,31.87
2018-12-01T02:47:33.843Z,31.82
2018-12-01T02:50:01.532Z,33.00
2018-12-01T02:52:28.830Z,31.77
2018-12-01T02:54:56.106Z,33.58
2018-12-01T02:57:23.414Z,33.60
2018-12-01T02:59:50.701Z,33.60
2018-12-01T03:02:18.010Z,34.03
2018-12-01T03:04:45.331Z,33.65
2018-12-01T03:07:12.638Z,32.28
2018-12-01T03:09:39.919Z,33.70
2018-12-01T03:12:07.231Z,34.13
2018-12-01T03:14:34.535Z,35.03
2018-12-01T03:17:01.878Z,32.73
2018-12-01T03:19:29.166Z,32.88
2018-12-01T03:21:56.475Z,30.02
2018-12-01T03:24:23.762Z,34.30
2018-12-01T03:26:51.107Z,36.15
2018-12-01T03:29:18.390Z,34.45
2018-12-01T03:31:45.695Z,35.52
2018-12-01T03:34:12.983Z,34.55
2018-12-01T03:36:40.294Z,33.05
2018-12-01T03:39:08.755Z,33.05
2018-12-01T03:41:36.400Z,31.37
2018-12-01T03:44:04.282Z,33.38
2018-12-01T03:46:31.513Z,34.08
2018-12-01T03:48:58.776Z,35.48
2018-12-01T03:51:26.098Z,34.92
2018-12-01T03:53:53.359Z,34.13
2018-12-01T03:56:20.647Z,32.88
2018-12-01T03:58:47.895Z,36.10
2018-12-01T04:01:15.143Z,36.08
2018-12-01T04:03:42.426Z,34.23
2018-12-01T04:06:09.713Z,51.18
2018-12-01T04:08:36.951Z,45.15
2018-12-01T04:11:04.527Z,35.28
2018-12-01T04:13:31.819Z,29.80
2018-12-01T04:15:59.044Z,28.80
2018-12-01T04:18:26.279Z,29.40
2018-12-01T04:20:53.505Z,31.10
2018-12-01T04:23:20.763Z,31.85
2018-12-01T04:25:47.991Z,28.83
2018-12-01T04:28:15.266Z,26.57
2018-12-01T04:30:42.506Z,28.25
2018-12-01T04:33:09.827Z,28.40
2018-12-01T04:35:37.147Z,29.37
2018-12-01T04:38:04.503Z,27.27
2018-12-01T04:40:31.737Z,25.23
2018-12-01T04:42:58.982Z,27.93
2018-12-01T04:45:26.411Z,29.05
2018-12-01T04:47:53.719Z,24.18
2018-12-01T04:50:21.088Z,26.77
2018-12-01T04:52:48.651Z,31.33
2018-12-01T04:55:18.063Z,29.70
2018-12-01T04:57:45.371Z,29.15
2018-12-01T05:00:14.846Z,27.55
2018-12-01T05:02:42.151Z,28.77
2018-12-01T05:05:10.841Z,30.23
2018-12-01T05:07:38.206Z,29.67
2018-12-01T05:10:07.650Z,30.60
2018-12-01T05:12:34.959Z,26.70
2018-12-01T05:15:02.680Z,23.45
2018-12-01T05:17:29.960Z,22.37
2018-12-01T05:19:57.242Z,22.48
2018-12-01T05:22:24.539Z,24.65
2018-12-01T05:24:51.815Z,25.97
2018-12-01T05:27:19.190Z,24.10
2018-12-01T05:29:46.467Z,24.43
2018-12-01T05:32:13.767Z,24.47
2018-12-01T05:34:41.053Z,25.25
2018-12-01T05:37:08.352Z,24.70
2018-12-01T05:39:35.642Z,23.42
2018-12-01T05:42:02.943Z,25.45
2018-12-01T05:44:30.231Z,24.98
2018-12-01T05:46:57.482Z,23.47
2018-12-01T05:49:24.710Z,25.05
2018-12-01T05:51:51.947Z,23.77
2018-12-01T05:54:19.174Z,22.75
2018-12-01T05:56:46.443Z,23.65
2018-12-01T05:59:13.797Z,23.38
2018-12-01T06:01:41.048Z,26.20
2018-12-01T06:04:08.278Z,25.25
2018-12-01T06:06:35.659Z,24.52
2018-12-01T06:09:04.419Z,24.55
2018-12-01T06:11:31.650Z,23.22
2018-12-01T06:13:58.878Z,22.93
2018-12-01T06:16:26.119Z,24.70
2018-12-01T06:18:53.671Z,23.73
2018-12-01T06:21:20.932Z,25.68
2018-12-01T06:23:48.171Z,24.92
2018-12-01T06:26:15.407Z,22.55
2018-12-01T06:28:42.642Z,22.50
2018-12-01T06:31:09.867Z,22.70
2018-12-01T06:33:37.102Z,25.43
2018-12-01T06:36:04.356Z,22.70
2018-12-01T06:38:31.599Z,22.17
2018-12-01T06:40:59.068Z,23.00
2018-12-01T06:43:26.340Z,24.00
2018-12-01T06:45:53.595Z,23.15
2018-12-01T06:48:20.843Z,21.33
2018-12-01T06:50:48.090Z,22.70
2018-12-01T06:53:15.435Z,21.65
2018-12-01T06:55:42.675Z,23.90
2018-12-01T06:58:09.955Z,24.40
2018-12-01T07:00:37.163Z,22.35
2018-12-01T07:03:04.490Z,22.37
2018-12-01T07:05:31.715Z,25.45
2018-12-01T07:07:58.947Z,22.50
2018-12-01T07:10:26.172Z,22.60
2018-12-01T07:12:56.955Z,29.18
2018-12-01T07:15:33.519Z,32.17
2018-12-01T07:18:00.754Z,49.40
2018-12-01T07:20:28.042Z,46.88
2018-12-01T07:22:55.267Z,45.83
2018-12-01T07:25:22.536Z,46.20
2018-12-01T07:27:50.119Z,57.33
2018-12-01T07:30:17.389Z,56.40
2018-12-01T07:32:44.846Z,45.10
2018-12-01T07:35:12.091Z,44.70
2018-12-01T07:37:39.482Z,44.48
2018-12-01T07:40:12.083Z,43.73
2018-12-01T07:42:39.314Z,44.93
2018-12-01T07:45:08.662Z,41.20
2018-12-01T07:47:35.890Z,40.83
2018-12-01T07:50:05.919Z,38.30
2018-12-01T07:52:33.142Z,39.18
2018-12-01T07:55:00.484Z,43.02
2018-12-01T07:57:27.810Z,43.10
2018-12-01T07:59:55.046Z,40.23
2018-12-01T08:02:22.306Z,47.25
2018-12-01T08:04:49.618Z,47.17
2018-12-01T08:07:16.875Z,47.30
2018-12-01T08:09:44.110Z,44.67
2018-12-01T08:12:11.449Z,37.30
2018-12-01T08:14:38.787Z,37.10
2018-12-01T08:17:06.010Z,35.92
2018-12-01T08:19:33.247Z,32.80
2018-12-01T08:22:00.483Z,30.70
2018-12-01T08:24:27.703Z,31.25
2018-12-01T08:26:55.052Z,27.27
2018-12-01T08:29:22.288Z,31.68
2018-12-01T08:31:49.543Z,31.02
2018-12-01T08:34:16.769Z,28.27
2018-12-01T08:36:44.007Z,27.80
2018-12-01T08:39:11.231Z,31.00
2018-12-01T08:41:38.475Z,30.05
2018-12-01T08:44:05.726Z,29.25
2018-12-01T08:46:33.134Z,29.50
2018-12-01T08:49:00.438Z,28.23
2018-12-01T08:51:27.731Z,28.98
2018-12-01T08:53:55.027Z,27.48
2018-12-01T08:56:22.347Z,23.60
2018-12-01T08:58:49.637Z,20.55
2018-12-01T09:01:17.217Z,21.12
2018-12-01T09:03:44.507Z,19.20
2018-12-01T09:06:11.803Z,19.23
2018-12-01T09:08:39.107Z,18.90
2018-12-01T09:11:06.423Z,18.15
2018-12-01T09:13:33.751Z,19.37
2018-12-01T09:16:01.055Z,19.57
2018-12-01T09:18:28.343Z,20.05
2018-12-01T09:20:55.643Z,19.82
2018-12-01T09:23:22.951Z,18.10
2018-12-01T09:25:50.531Z,19.15
2018-12-01T09:28:17.839Z,17.98
2018-12-01T09:30:45.150Z,17.20
2018-12-01T09:33:12.486Z,17.95
2018-12-01T09:35:39.811Z,21.68
2018-12-01T09:38:07.106Z,21.30
2018-12-01T09:40:34.740Z,19.17
2018-12-01T09:43:02.098Z,21.35
2018-12-01T09:45:29.426Z,20.68
2018-12-01T09:47:56.734Z,21.93
2018-12-01T09:50:24.215Z,20.90
2018-12-01T09:52:52.743Z,19.70
2018-12-01T09:55:22.389Z,20.45
2018-12-01T09:57:49.919Z,20.05
2018-12-01T10:00:19.234Z,21.45
2018-12-01T10:02:46.870Z,19.25
2018-12-01T10:05:16.454Z,19.85
2018-12-01T10:07:43.753Z,17.70
2018-12-01T10:10:12.322Z,17.40
2018-12-01T10:12:39.647Z,17.32
2018-12-01T10:15:12.591Z,16.20
2018-12-01T10:17:39.889Z,16.02
2018-12-01T10:20:09.110Z,14.65
2018-12-01T10:22:36.407Z,12.80
2018-12-01T10:25:04.035Z,12.95
2018-12-01T10:27:31.370Z,11.90
2018-12-01T10:29:58.681Z,11.85
2018-12-01T10:32:25.989Z,11.60
2018-12-01T10:34:53.253Z,10.80
2018-12-01T10:37:20.502Z,9.88
2018-12-01T10:39:47.744Z,9.75
2018-12-01T10:42:14.979Z,9.78
2018-12-01T10:44:42.222Z,9.25
2018-12-01T10:47:09.486Z,8.23
2018-12-01T10:49:36.724Z,8.50
2018-12-01T10:52:04.243Z,8.60
2018-12-01T10:54:31.506Z,8.45
2018-12-01T10:56:58.779Z,8.25
2018-12-01T10:59:26.059Z,9.20
2018-12-01T11:02:57.851Z,9.43
2018-12-01T11:05:25.102Z,8.90
2018-12-01T11:07:52.375Z,7.10
2018-12-01T11:10:19.618Z,8.90
2018-12-01T11:12:46.871Z,8.25
2018-12-01T11:15:14.135Z,8.80
2018-12-01T11:17:41.388Z,7.55
2018-12-01T11:20:09.810Z,8.60
2018-12-01T11:22:37.215Z,8.70
2018-12-01T11:25:07.116Z,8.33
2018-12-01T11:27:34.850Z,8.50
2018-12-01T11:30:02.623Z,8.53
2018-12-01T11:32:29.915Z,8.50
2018-12-01T11:34:57.191Z,9.20
2018-12-01T11:37:24.427Z,8.68
2018-12-01T11:39:51.687Z,9.28
2018-12-01T11:42:18.942Z,9.40
2018-12-01T11:44:46.218Z,10.45
2018-12-01T11:47:13.506Z,9.98
2018-12-01T11:49:40.771Z,9.40
2018-12-01T11:52:08.062Z,9.45
2018-12-01T11:54:35.343Z,7.97
2018-12-01T11:57:02.587Z,8.35
2018-12-01T11:59:29.834Z,7.72
2018-12-01T12:02:00.471Z,7.75
2018-12-01T12:04:24.399Z,7.10
2018-12-01T12:06:51.673Z,6.95
2018-12-01T12:09:19.215Z,7.12
2018-12-01T12:11:46.453Z,6.30
2018-12-01T12:14:13.751Z,6.47
2018-12-01T12:16:41.015Z,6.83
2018-12-01T12:19:08.282Z,6.87
2018-12-01T12:21:35.562Z,6.78
2018-12-01T12:24:02.843Z,6.25
2018-12-01T12:26:30.091Z,6.53
2018-12-01T12:28:57.375Z,6.00
2018-12-01T12:31:24.668Z,6.35
2018-12-01T12:33:51.911Z,5.90
2018-12-01T12:36:20.369Z,6.50
2018-12-01T12:38:47.846Z,5.35
2018-12-01T12:41:15.091Z,5.75
2018-12-01T12:43:42.327Z,6.50
2018-12-01T12:46:09.590Z,6.75
2018-12-01T12:48:36.834Z,6.83
2018-12-01T12:51:04.145Z,6.85
2018-12-01T12:53:31.378Z,6.15
2018-12-01T12:55:58.619Z,6.03
2018-12-01T12:58:25.858Z,6.05
2018-12-01T13:00:53.099Z,5.92
2018-12-01T13:03:20.337Z,5.22
2018-12-01T13:05:48.575Z,4.85
2018-12-01T13:08:17.369Z,5.85
2018-12-01T13:10:44.614Z,5.40
2018-12-01T13:13:11.856Z,5.37
2018-12-01T13:15:39.193Z,5.53
2018-12-01T13:18:09.795Z,4.97
2018-12-01T13:20:37.310Z,4.80
2018-12-01T13:23:05.110Z,5.58
2018-12-01T13:25:32.346Z,15.20
2018-12-01T13:28:09.235Z,6.65
2018-12-01T13:30:39.999Z,6.22
2018-12-01T13:33:07.267Z,6.42
2018-12-01T13:35:34.708Z,4.90
2018-12-01T13:38:01.987Z,5.70
2018-12-01T13:40:29.267Z,5.05
2018-12-01T13:42:56.642Z,5.05
2018-12-01T13:45:24.718Z,6.53
2018-12-01T13:47:52.026Z,5.45
2018-12-01T13:50:20.158Z,5.58
2018-12-01T13:52:50.908Z,5.10
2018-12-01T13:55:18.193Z,4.60
2018-12-01T13:57:45.583Z,5.60
2018-12-01T14:00:14.068Z,6.47
2018-12-01T14:02:41.342Z,7.75
2018-12-01T14:05:09.722Z,8.20
2018-12-01T14:07:37.064Z,6.60
2018-12-01T14:10:08.567Z,5.65
2018-12-01T14:12:35.823Z,5.00
2018-12-01T14:15:03.582Z,5.33
2018-12-01T14:17:30.947Z,4.77
2018-12-01T14:19:58.267Z,5.08
2018-12-01T14:22:25.643Z,4.70
2018-12-01T14:24:52.891Z,4.20
2018-12-01T14:27:20.273Z,4.42
2018-12-01T14:29:47.650Z,4.10
2018-12-01T14:32:14.994Z,3.50
2018-12-01T14:34:42.238Z,4.83
2018-12-01T14:37:09.507Z,5.03
2018-12-01T14:39:36.963Z,4.83
2018-12-01T14:42:04.233Z,4.55
2018-12-01T14:44:31.658Z,5.05
2018-12-01T14:46:59.035Z,5.25
2018-12-01T14:49:26.346Z,4.00
2018-12-01T14:51:53.669Z,4.45
2018-12-01T14:54:21.079Z,6.12
2018-12-01T14:56:48.383Z,4.30
2018-12-01T14:59:15.758Z,4.62
2018-12-01T15:01:43.241Z,6.92
2018-12-01T15:04:10.621Z,5.87
2018-12-01T15:06:38.044Z,5.58
2018-12-01T15:09:08.048Z,5.33
2018-12-01T15:11:35.486Z,5.95
2018-12-01T15:14:03.113Z,4.75
2018-12-01T15:16:30.411Z,5.25
2018-12-01T15:18:58.051Z,5.20
2018-12-01T15:21:25.450Z,20.17
2018-12-01T15:23:52.770Z,19.42
2018-12-01T15:26:20.071Z,14.70
2018-12-01T15:28:47.539Z,8.88
2018-12-01T15:31:14.879Z,7.28
2018-12-01T15:33:42.287Z,6.78
2018-12-01T15:36:09.825Z,6.05
2018-12-01T15:38:37.195Z,5.35
2018-12-01T15:41:04.623Z,4.95
2018-12-01T15:43:31.968Z,4.97
2018-12-01T15:45:59.332Z,4.50
2018-12-01T15:48:26.692Z,5.00
2018-12-01T15:50:54.057Z,4.20
2018-12-01T15:53:21.419Z,4.17
2018-12-01T15:55:48.762Z,5.03
2018-12-01T15:58:16.127Z,4.60
2018-12-01T16:00:43.614Z,4.85
2018-12-01T16:03:10.999Z,6.00
2018-12-01T16:05:38.416Z,5.45
2018-12-01T16:08:07.098Z,5.95
2018-12-01T16:10:34.444Z,6.35
2018-12-01T16:13:05.699Z,6.95
2018-12-01T16:15:37.138Z,8.10
2018-12-01T16:18:05.735Z,13.30
2018-12-01T16:20:33.107Z,13.45
2018-12-01T16:23:00.446Z,7.15
2018-12-01T16:25:27.795Z,12.70
2018-12-01T16:27:55.160Z,17.32
2018-12-01T16:30:27.987Z,15.10
2018-12-01T16:32:56.794Z,12.68
2018-12-01T16:35:24.122Z,10.03
2018-12-01T16:37:51.463Z,10.32
2018-12-01T16:40:23.700Z,12.10
2018-12-01T16:42:51.258Z,10.00
2018-12-01T16:45:18.581Z,8.08
2018-12-01T16:47:46.013Z,12.98
2018-12-01T16:50:14.363Z,10.78
2018-12-01T16:52:42.666Z,11.83
2018-12-01T16:55:12.398Z,8.93
2018-12-01T16:57:39.783Z,11.20
2018-12-01T17:00:16.075Z,10.13
2018-12-01T17:02:44.626Z,10.45
2018-12-01T17:05:13.471Z,10.88
2018-12-01T17:07:40.786Z,13.22
2018-12-01T17:10:10.855Z,11.30
2018-12-01T17:12:38.274Z,13.55
2018-12-01T17:15:08.982Z,16.17
2018-12-01T17:17:36.359Z,17.65
2018-12-01T17:20:05.134Z,19.62
2018-12-01T17:22:32.426Z,20.12
2018-12-01T17:24:59.942Z,17.65
2018-12-01T17:27:27.254Z,13.70
2018-12-01T17:29:54.614Z,13.48
2018-12-01T17:32:21.905Z,19.37
2018-12-01T17:34:49.218Z,15.75
2018-12-01T17:37:16.683Z,12.28
2018-12-01T17:39:44.014Z,11.78
2018-12-01T17:42:11.439Z,15.93
2018-12-01T17:44:38.775Z,20.23
2018-12-01T17:47:06.159Z,16.30
2018-12-01T17:49:33.485Z,17.35
2018-12-01T17:52:00.822Z,17.70
2018-12-01T17:54:28.163Z,9.33
2018-12-01T17:56:55.533Z,8.15
2018-12-01T17:59:22.899Z,7.65
2018-12-01T18:01:50.199Z,7.78
2018-12-01T18:04:17.647Z,7.00
2018-12-01T18:06:45.086Z,7.67
2018-12-01T18:09:12.470Z,7.50
2018-12-01T18:11:39.774Z,7.15
2018-12-01T18:14:08.575Z,10.58
2018-12-01T18:16:35.905Z,10.53
2018-12-01T18:19:03.311Z,12.95
2018-12-01T18:21:30.611Z,14.28
2018-12-01T18:23:57.903Z,15.23
2018-12-01T18:26:25.242Z,9.23
2018-12-01T18:28:52.556Z,8.45
2018-12-01T18:31:22.515Z,8.13
2018-12-01T18:33:53.343Z,7.72
2018-12-01T18:36:20.703Z,7.08
2018-12-01T18:38:49.408Z,8.25
2018-12-01T18:41:16.799Z,8.28
2018-12-01T18:43:44.257Z,7.97
2018-12-01T18:46:13.084Z,7.78
2018-12-01T18:48:40.359Z,7.20
2018-12-01T18:51:07.643Z,7.45
2018-12-01T18:53:34.895Z,6.90
2018-12-01T18:56:02.167Z,6.80
2018-12-01T18:58:29.448Z,7.70
2018-12-01T19:00:57.063Z,6.80
2018-12-01T19:03:26.467Z,6.72
2018-12-01T19:05:53.712Z,6.90
2018-12-01T19:08:20.991Z,6.95
2018-12-01T19:10:48.375Z,7.72
2018-12-01T19:13:15.627Z,7.20
2018-12-01T19:15:42.895Z,8.70
2018-12-01T19:18:10.167Z,9.18
2018-12-01T19:20:37.664Z,12.60
2018-12-01T19:23:25.171Z,8.70
2018-12-01T19:25:53.051Z,10.98
2018-12-01T19:28:20.318Z,11.30
2018-12-01T19:30:47.555Z,11.22
2018-12-01T19:33:16.342Z,10.60
2018-12-01T19:35:44.243Z,12.05
2018-12-01T19:38:14.723Z,10.53
2018-12-01T19:40:42.624Z,12.23
2018-12-01T19:43:09.875Z,14.33
2018-12-01T19:45:37.121Z,10.88
2018-12-01T19:48:05.490Z,6.75
2018-12-01T19:50:34.015Z,7.20
2018-12-01T19:53:01.296Z,6.30
2018-12-01T19:55:29.095Z,5.60
2018-12-01T19:57:56.371Z,5.40
2018-12-01T20:00:26.787Z,6.03
2018-12-01T20:02:54.646Z,5.70
2018-12-01T20:05:22.045Z,5.80
2018-12-01T20:07:50.479Z,6.70
2018-12-01T20:10:30.990Z,5.85
2018-12-01T20:13:09.710Z,6.40
2018-12-01T20:15:41.107Z,5.50
2018-12-01T20:18:11.137Z,5.70
2018-12-01T20:20:38.515Z,5.78
2018-12-01T20:23:05.788Z,5.70
2018-12-01T20:25:33.043Z,4.83
2018-12-01T20:28:00.319Z,5.33
2018-12-01T20:30:27.646Z,5.30
2018-12-01T20:32:54.901Z,5.33
2018-12-01T20:35:31.414Z,4.80
2018-12-01T20:38:05.619Z,5.67
2018-12-01T20:40:32.859Z,5.80
2018-12-01T20:43:00.163Z,5.45
2018-12-01T20:45:27.411Z,5.60
2018-12-01T20:47:54.710Z,4.90
2018-12-01T20:50:22.035Z,5.67
2018-12-01T20:52:49.356Z,5.12
2018-12-01T20:55:23.587Z,5.00
2018-12-01T20:57:52.675Z,5.40
2018-12-01T21:00:20.013Z,5.58
2018-12-01T21:02:47.318Z,5.58
2018-12-01T21:05:19.062Z,5.90
2018-12-01T21:07:46.358Z,5.33
2018-12-01T21:10:31.811Z,6.50
2018-12-01T21:13:00.399Z,7.87
2018-12-01T21:15:27.682Z,6.40
2018-12-01T21:17:54.955Z,5.62
2018-12-01T21:20:22.227Z,5.65
2018-12-01T21:22:50.263Z,5.62
2018-12-01T21:25:19.367Z,5.75
2018-12-01T21:27:46.602Z,5.67
2018-12-01T21:30:18.307Z,5.85
2018-12-01T21:32:46.858Z,7.40
2018-12-01T21:35:14.122Z,6.97
2018-12-01T21:37:41.471Z,6.12
2018-12-01T21:40:23.622Z,6.47
2018-12-01T21:42:50.875Z,5.70
2018-12-01T21:45:18.326Z,4.58
2018-12-01T21:47:45.711Z,5.75
2018-12-01T21:50:16.080Z,5.83
2018-12-01T21:52:44.651Z,6.25
2018-12-01T21:55:12.262Z,5.60
2018-12-01T21:57:40.698Z,5.85
2018-12-01T22:00:18.002Z,6.30
2018-12-01T22:02:47.074Z,6.75
2018-12-01T22:05:15.935Z,6.10
2018-12-01T22:07:43.311Z,6.15
2018-12-01T22:10:12.234Z,6.78
2018-12-01T22:12:39.547Z,6.03
2018-12-01T22:15:09.602Z,5.65
2018-12-01T22:17:36.895Z,6.40
2018-12-01T22:20:08.043Z,6.87
2018-12-01T22:22:35.314Z,5.70
2018-12-01T22:25:03.010Z,5.90
2018-12-01T22:27:29.926Z,5.37
2018-12-01T22:29:57.206Z,6.00
2018-12-01T22:32:24.478Z,5.20
2018-12-01T22:34:51.750Z,4.90
2018-12-01T22:37:19.028Z,5.90
2018-12-01T22:39:46.299Z,5.50
2018-12-01T22:42:13.587Z,6.15
2018-12-01T22:44:40.851Z,5.00
2018-12-01T22:47:08.114Z,5.50
2018-12-01T22:49:35.351Z,5.62
2018-12-01T22:52:02.646Z,5.90
2018-12-01T22:54:29.887Z,5.10
2018-12-01T22:56:57.138Z,5.35
2018-12-01T22:59:24.543Z,6.58
2018-12-01T23:01:52.126Z,5.15
2018-12-01T23:04:19.367Z,5.00
2018-12-01T23:06:46.634Z,5.95
2018-12-01T23:09:13.947Z,5.53
2018-12-01T23:11:41.193Z,5.03
2018-12-01T23:14:08.444Z,6.00
2018-12-01T23:16:35.688Z,6.05
2018-12-01T23:19:02.955Z,5.60
2018-12-01T23:21:30.238Z,5.62
2018-12-01T23:23:57.488Z,6.45
2018-12-01T23:26:24.747Z,6.00
2018-12-01T23:28:52.001Z,4.90
2018-12-01T23:31:19.262Z,4.87
2018-12-01T23:33:46.528Z,5.03
2018-12-01T23:36:13.762Z,5.45
2018-12-01T23:38:41.023Z,5.40
2018-12-01T23:41:08.276Z,5.20
2018-12-01T23:43:35.589Z,9.48
2018-12-01T23:46:02.835Z,6.10
2018-12-01T23:48:30.098Z,7.37
2018-12-01T23:50:57.339Z,6.40
2018-12-01T23:53:25.229Z,6.15
2018-12-01T23:55:52.560Z,6.45
2018-12-01T23:58:19.842Z,5.85
